createdAt,value
2018-02-25T00:00:25.251Z,1.80
2018-02-25T00:01:25.853Z,1.70
2018-02-25T00:02:25.877Z,1.70
2018-02-25T00:03:26.099Z,1.70
2018-02-25T00:04:26.330Z,1.60
2018-02-25T00:05:26.564Z,1.80
2018-02-25T00:06:26.802Z,1.80
2018-02-25T00:07:27.040Z,1.90
2018-02-25T00:08:27.275Z,1.90
2018-02-25T00:09:27.511Z,1.80
2018-02-25T00:10:27.751Z,1.80
2018-02-25T00:11:27.989Z,1.80
2018-02-25T00:12:28.229Z,1.80
2018-02-25T00:13:28.465Z,1.80
2018-02-25T00:14:28.703Z,1.70
2018-02-25T00:15:28.946Z,1.50
2018-02-25T00:16:29.177Z,1.80
2018-02-25T00:17:29.414Z,1.80
2018-02-25T00:18:29.647Z,1.60
2018-02-25T00:19:29.887Z,1.80
2018-02-25T00:20:30.121Z,1.70
2018-02-25T00:21:30.358Z,1.70
2018-02-25T00:22:30.599Z,1.80
2018-02-25T00:23:30.835Z,1.70
2018-02-25T00:24:31.072Z,1.60
2018-02-25T00:25:31.309Z,1.80
2018-02-25T00:26:31.548Z,1.90
2018-02-25T00:27:31.777Z,1.80
2018-02-25T00:28:32.023Z,1.90
2018-02-25T00:29:32.256Z,1.70
2018-02-25T00:30:32.495Z,1.80
2018-02-25T00:31:32.731Z,1.90
2018-02-25T00:32:32.971Z,1.80
2018-02-25T00:33:33.208Z,1.90
2018-02-25T00:34:33.445Z,1.70
2018-02-25T00:35:33.682Z,2.00
2018-02-25T00:36:33.919Z,1.50
2018-02-25T00:37:34.155Z,1.90
2018-02-25T00:38:34.394Z,1.70
2018-02-25T00:39:34.631Z,1.80
2018-02-25T00:40:34.868Z,1.70
2018-02-25T00:41:35.105Z,1.60
2018-02-25T00:42:35.342Z,1.80
2018-02-25T00:43:35.580Z,1.80
2018-02-25T00:44:35.818Z,1.80
2018-02-25T00:45:36.052Z,1.80
2018-02-25T00:46:36.292Z,1.80
2018-02-25T00:47:36.512Z,1.60
2018-02-25T00:48:36.757Z,1.80
2018-02-25T00:49:37.000Z,1.80
2018-02-25T00:50:37.243Z,1.80
2018-02-25T00:51:37.479Z,1.80
2018-02-25T00:52:37.706Z,1.70
2018-02-25T00:53:37.954Z,1.70
2018-02-25T00:54:38.199Z,1.70
2018-02-25T00:55:38.421Z,1.70
2018-02-25T00:56:38.658Z,2.00
2018-02-25T00:57:38.895Z,1.60
2018-02-25T00:58:46.257Z,1.60
2018-02-25T00:59:46.508Z,1.90
2018-02-25T01:00:46.768Z,1.70
2018-02-25T01:01:47.505Z,1.90
2018-02-25T01:02:40.171Z,1.80
2018-02-25T01:03:47.536Z,1.70
2018-02-25T01:04:40.661Z,1.80
2018-02-25T01:05:40.897Z,1.80
2018-02-25T01:06:41.144Z,1.70
2018-02-25T01:07:41.376Z,1.90
2018-02-25T01:08:41.612Z,1.90
2018-02-25T01:09:41.846Z,1.90
2018-02-25T01:10:42.088Z,1.80
2018-02-25T01:11:42.334Z,1.80
2018-02-25T01:12:42.561Z,2.00
2018-02-25T01:13:42.799Z,1.70
2018-02-25T01:14:43.036Z,1.60
2018-02-25T01:15:43.272Z,1.90
2018-02-25T01:16:43.509Z,1.70
2018-02-25T01:17:43.745Z,1.70
2018-02-25T01:18:43.986Z,1.80
2018-02-25T01:19:44.223Z,1.70
2018-02-25T01:20:44.460Z,1.70
2018-02-25T01:21:44.706Z,1.90
2018-02-25T01:22:44.939Z,1.70
2018-02-25T01:23:45.181Z,1.70
2018-02-25T01:24:45.409Z,1.70
2018-02-25T01:25:45.646Z,1.80
2018-02-25T01:26:45.884Z,1.70
2018-02-25T01:27:46.121Z,1.80
2018-02-25T01:28:46.352Z,1.80
2018-02-25T01:29:46.594Z,1.70
2018-02-25T01:30:46.833Z,1.70
2018-02-25T01:31:47.078Z,1.80
2018-02-25T01:32:47.306Z,1.80
2018-02-25T01:33:47.544Z,2.00
2018-02-25T01:34:47.784Z,1.90
2018-02-25T01:35:48.028Z,1.80
2018-02-25T01:36:48.256Z,1.80
2018-02-25T01:37:48.493Z,1.80
2018-02-25T01:38:48.731Z,1.70
2018-02-25T01:39:48.976Z,1.90
2018-02-25T01:40:49.208Z,2.00
2018-02-25T01:41:49.446Z,1.90
2018-02-25T01:42:49.683Z,1.80
2018-02-25T01:43:49.925Z,1.90
2018-02-25T01:44:50.154Z,1.90
2018-02-25T01:45:50.394Z,1.80
2018-02-25T01:46:50.629Z,1.90
2018-02-25T01:47:50.866Z,1.90
2018-02-25T01:48:51.102Z,1.90
2018-02-25T01:49:51.338Z,1.80
2018-02-25T01:50:51.578Z,2.00
2018-02-25T01:51:51.817Z,1.90
2018-02-25T01:52:52.050Z,1.80
2018-02-25T01:53:52.288Z,1.80
2018-02-25T01:54:52.536Z,2.00
2018-02-25T01:55:52.781Z,1.80
2018-02-25T01:56:53.004Z,1.90
2018-02-25T01:57:53.241Z,1.80
2018-02-25T01:58:53.480Z,1.90
2018-02-25T01:59:53.721Z,1.80
2018-02-25T02:00:53.952Z,1.80
2018-02-25T02:01:54.188Z,1.70
2018-02-25T02:02:54.424Z,1.70
2018-02-25T02:03:54.663Z,1.80
2018-02-25T02:04:54.896Z,1.70
2018-02-25T02:05:55.132Z,1.80
2018-02-25T02:06:55.373Z,2.00
2018-02-25T02:07:55.610Z,1.90
2018-02-25T02:08:55.847Z,1.90
2018-02-25T02:09:56.082Z,2.10
2018-02-25T02:10:56.326Z,1.80
2018-02-25T02:11:56.559Z,2.00
2018-02-25T02:12:56.788Z,1.80
2018-02-25T02:13:57.030Z,2.00
2018-02-25T02:14:57.272Z,1.80
2018-02-25T02:15:57.509Z,1.80
2018-02-25T02:16:57.744Z,2.10
2018-02-25T02:17:57.981Z,1.90
2018-02-25T02:18:58.220Z,2.00
2018-02-25T02:19:58.457Z,2.00
2018-02-25T02:20:58.697Z,1.90
2018-02-25T02:21:58.930Z,2.00
2018-02-25T02:22:59.169Z,1.80
2018-02-25T02:23:59.410Z,1.90
2018-02-25T02:24:59.641Z,1.60
2018-02-25T02:25:59.884Z,1.90
2018-02-25T02:27:00.119Z,1.90
2018-02-25T02:28:00.355Z,1.90
2018-02-25T02:29:00.593Z,1.80
2018-02-25T02:30:00.830Z,1.90
2018-02-25T02:31:01.068Z,1.90
2018-02-25T02:32:01.304Z,1.80
2018-02-25T02:33:01.539Z,1.90
2018-02-25T02:34:01.779Z,1.90
2018-02-25T02:35:02.022Z,1.80
2018-02-25T02:36:02.265Z,2.20
2018-02-25T02:37:02.496Z,1.90
2018-02-25T02:38:02.729Z,2.00
2018-02-25T02:39:02.967Z,1.60
2018-02-25T02:40:03.204Z,1.70
2018-02-25T02:41:03.437Z,2.00
2018-02-25T02:42:03.675Z,1.70
2018-02-25T02:43:03.902Z,1.80
2018-02-25T02:44:04.154Z,1.90
2018-02-25T02:45:04.390Z,1.90
2018-02-25T02:46:04.637Z,1.90
2018-02-25T02:47:04.874Z,2.00
2018-02-25T02:48:05.112Z,2.00
2018-02-25T02:49:05.343Z,1.90
2018-02-25T02:50:05.579Z,2.00
2018-02-25T02:51:05.816Z,1.90
2018-02-25T02:52:06.053Z,2.00
2018-02-25T02:53:06.286Z,1.80
2018-02-25T02:54:06.524Z,1.90
2018-02-25T02:55:06.763Z,2.00
2018-02-25T02:56:07.004Z,2.10
2018-02-25T02:57:07.236Z,1.90
2018-02-25T02:58:07.473Z,2.10
2018-02-25T02:59:07.711Z,1.90
2018-02-25T03:00:07.960Z,1.90
2018-02-25T03:01:08.185Z,1.90
2018-02-25T03:02:08.423Z,2.10
2018-02-25T03:03:08.660Z,1.90
2018-02-25T03:04:08.901Z,1.90
2018-02-25T03:05:09.133Z,1.90
2018-02-25T03:06:09.370Z,2.00
2018-02-25T03:07:09.608Z,2.00
2018-02-25T03:08:09.850Z,2.00
2018-02-25T03:09:10.082Z,1.90
2018-02-25T03:10:10.316Z,1.90
2018-02-25T03:11:10.559Z,2.10
2018-02-25T03:12:10.794Z,1.90
2018-02-25T03:13:11.031Z,2.00
2018-02-25T03:14:11.267Z,2.00
2018-02-25T03:15:11.508Z,2.20
2018-02-25T03:16:11.742Z,2.00
2018-02-25T03:17:11.982Z,2.00
2018-02-25T03:18:12.215Z,1.90
2018-02-25T03:19:12.455Z,2.40
2018-02-25T03:20:12.695Z,2.10
2018-02-25T03:21:12.934Z,2.00
2018-02-25T03:22:13.167Z,2.00
2018-02-25T03:23:13.405Z,1.90
2018-02-25T03:24:13.645Z,2.10
2018-02-25T03:25:13.877Z,2.00
2018-02-25T03:26:14.110Z,2.10
2018-02-25T03:27:14.354Z,2.00
2018-02-25T03:28:14.591Z,2.00
2018-02-25T03:29:14.824Z,2.00
2018-02-25T03:30:15.062Z,2.00
2018-02-25T03:31:15.304Z,2.00
2018-02-25T03:32:15.539Z,2.10
2018-02-25T03:33:15.771Z,2.00
2018-02-25T03:34:16.012Z,2.10
2018-02-25T03:35:16.252Z,1.90
2018-02-25T03:36:16.489Z,2.00
2018-02-25T03:37:23.846Z,1.90
2018-02-25T03:38:24.115Z,2.20
2018-02-25T03:39:24.371Z,2.10
2018-02-25T03:40:24.629Z,2.00
2018-02-25T03:41:24.877Z,1.90
2018-02-25T03:42:26.133Z,2.20
2018-02-25T03:46:29.559Z,2.20
2018-02-25T03:47:29.795Z,2.20
2018-02-25T03:48:30.032Z,2.00
2018-02-25T03:49:30.273Z,2.00
2018-02-25T03:50:30.509Z,2.10
2018-02-25T03:51:30.746Z,2.20
2018-02-25T03:52:30.979Z,2.00
2018-02-25T03:53:31.212Z,2.00
2018-02-25T03:54:31.449Z,2.10
2018-02-25T03:55:31.684Z,2.20
2018-02-25T03:56:31.918Z,2.10
2018-02-25T03:57:32.157Z,2.10
2018-02-25T03:58:32.393Z,2.20
2018-02-25T03:59:32.630Z,2.40
2018-02-25T04:00:32.861Z,2.00
2018-02-25T04:01:33.097Z,2.40
2018-02-25T04:02:33.333Z,2.20
2018-02-25T04:03:33.571Z,2.00
2018-02-25T04:04:33.804Z,2.10
2018-02-25T04:05:34.041Z,2.30
2018-02-25T04:06:34.281Z,2.10
2018-02-25T04:07:34.516Z,2.20
2018-02-25T04:08:34.753Z,2.40
2018-02-25T04:09:34.989Z,2.20
2018-02-25T04:10:35.230Z,2.10
2018-02-25T04:11:35.467Z,2.20
2018-02-25T04:12:35.717Z,2.20
2018-02-25T04:13:35.953Z,1.90
2018-02-25T04:14:36.190Z,2.20
2018-02-25T04:15:36.424Z,2.20
2018-02-25T04:16:36.668Z,2.30
2018-02-25T04:17:36.906Z,2.20
2018-02-25T04:18:37.137Z,2.20
2018-02-25T04:19:37.373Z,2.10
2018-02-25T04:20:37.606Z,2.00
2018-02-25T04:21:37.843Z,2.30
2018-02-25T04:22:38.079Z,2.20
2018-02-25T04:23:38.315Z,2.30
2018-02-25T04:24:38.549Z,2.20
2018-02-25T04:25:38.789Z,2.10
2018-02-25T04:26:39.027Z,2.10
2018-02-25T04:27:39.270Z,2.20
2018-02-25T04:28:39.498Z,2.20
2018-02-25T04:29:39.734Z,2.10
2018-02-25T04:30:39.975Z,2.20
2018-02-25T04:31:40.212Z,2.20
2018-02-25T04:32:40.448Z,2.20
2018-02-25T04:33:40.684Z,2.40
2018-02-25T04:34:40.924Z,2.40
2018-02-25T04:35:41.160Z,2.50
2018-02-25T04:36:41.396Z,2.30
2018-02-25T04:37:41.632Z,2.20
2018-02-25T04:38:41.874Z,2.30
2018-02-25T04:39:42.105Z,2.50
2018-02-25T04:40:42.342Z,2.30
2018-02-25T04:41:42.578Z,2.10
2018-02-25T04:42:42.824Z,2.00
2018-02-25T04:43:43.057Z,2.30
2018-02-25T04:44:43.297Z,2.30
2018-02-25T04:45:43.533Z,2.40
2018-02-25T04:46:43.777Z,2.40
2018-02-25T04:47:44.041Z,2.20
2018-02-25T04:48:44.249Z,2.10
2018-02-25T04:49:44.485Z,2.30
2018-02-25T04:50:44.721Z,2.30
2018-02-25T04:51:44.969Z,2.10
2018-02-25T04:52:45.194Z,2.20
2018-02-25T04:53:45.427Z,2.50
2018-02-25T04:54:45.669Z,2.20
2018-02-25T04:55:45.905Z,2.40
2018-02-25T04:56:46.142Z,2.50
2018-02-25T04:57:46.377Z,2.50
2018-02-25T04:58:46.618Z,2.30
2018-02-25T04:59:46.854Z,2.30
2018-02-25T05:00:47.090Z,2.30
2018-02-25T05:01:47.326Z,2.40
2018-02-25T05:02:47.566Z,2.50
2018-02-25T05:03:47.803Z,2.30
2018-02-25T05:04:48.038Z,2.50
2018-02-25T05:05:48.276Z,2.40
2018-02-25T05:06:48.516Z,2.40
2018-02-25T05:07:48.753Z,2.30
2018-02-25T05:08:48.993Z,2.20
2018-02-25T05:09:49.225Z,2.30
2018-02-25T05:10:49.464Z,2.10
2018-02-25T05:11:49.701Z,2.20
2018-02-25T05:12:49.937Z,2.10
2018-02-25T05:13:50.174Z,2.20
2018-02-25T05:14:50.413Z,2.30
2018-02-25T05:15:50.650Z,2.30
2018-02-25T05:16:50.885Z,2.40
2018-02-25T05:17:51.122Z,2.40
2018-02-25T05:18:51.362Z,2.40
2018-02-25T05:19:51.598Z,2.30
2018-02-25T05:20:51.834Z,2.40
2018-02-25T05:21:52.070Z,2.40
2018-02-25T05:22:52.311Z,2.40
2018-02-25T05:23:52.546Z,2.60
2018-02-25T05:24:52.783Z,2.40
2018-02-25T05:25:53.020Z,2.30
2018-02-25T05:26:53.260Z,2.30
2018-02-25T05:27:53.495Z,2.20
2018-02-25T05:28:53.732Z,2.10
2018-02-25T05:29:53.969Z,2.30
2018-02-25T05:30:54.209Z,2.50
2018-02-25T05:31:54.446Z,2.30
2018-02-25T05:32:54.682Z,2.10
2018-02-25T05:33:54.927Z,2.40
2018-02-25T05:34:55.161Z,2.40
2018-02-25T05:35:55.406Z,2.60
2018-02-25T05:36:55.632Z,2.50
2018-02-25T05:37:55.869Z,2.70
2018-02-25T05:38:56.107Z,2.20
2018-02-25T05:39:56.344Z,2.60
2018-02-25T05:40:56.580Z,2.40
2018-02-25T05:41:56.816Z,2.40
2018-02-25T05:42:57.058Z,2.40
2018-02-25T05:43:57.349Z,2.30
2018-02-25T05:44:57.528Z,2.40
2018-02-25T05:45:57.763Z,2.20
2018-02-25T05:46:58.005Z,2.50
2018-02-25T05:47:58.241Z,2.70
2018-02-25T05:48:58.479Z,2.40
2018-02-25T05:49:58.716Z,2.20
2018-02-25T05:50:58.958Z,2.40
2018-02-25T05:51:59.195Z,2.60
2018-02-25T05:52:59.427Z,2.30
2018-02-25T05:53:59.664Z,2.40
2018-02-25T05:54:59.906Z,2.50
2018-02-25T05:56:00.139Z,2.40
2018-02-25T05:57:00.376Z,2.60
2018-02-25T05:58:00.611Z,2.40
2018-02-25T05:59:00.852Z,2.50
2018-02-25T06:00:01.089Z,2.30
2018-02-25T06:01:01.326Z,2.50
2018-02-25T06:02:01.562Z,2.60
2018-02-25T06:03:01.801Z,2.40
2018-02-25T06:04:02.035Z,2.40
2018-02-25T06:05:02.274Z,2.30
2018-02-25T06:06:02.511Z,2.30
2018-02-25T06:07:02.750Z,2.30
2018-02-25T06:08:02.985Z,2.20
2018-02-25T06:09:03.221Z,2.40
2018-02-25T06:10:03.457Z,2.40
2018-02-25T06:11:03.698Z,2.40
2018-02-25T06:12:03.932Z,2.40
2018-02-25T06:13:04.173Z,2.20
2018-02-25T06:14:04.409Z,2.50
2018-02-25T06:15:04.648Z,2.30
2018-02-25T06:16:04.884Z,2.50
2018-02-25T06:17:12.244Z,2.20
2018-02-25T06:18:13.190Z,2.60
2018-02-25T06:19:12.749Z,2.60
2018-02-25T06:20:12.998Z,2.60
2018-02-25T06:21:13.241Z,2.40
2018-02-25T06:22:13.488Z,2.60
2018-02-25T06:23:06.626Z,2.70
2018-02-25T06:24:06.846Z,2.40
2018-02-25T06:25:07.079Z,2.50
2018-02-25T06:26:07.321Z,2.30
2018-02-25T06:27:07.554Z,2.40
2018-02-25T06:28:07.790Z,2.40
2018-02-25T06:29:08.034Z,2.30
2018-02-25T06:30:08.270Z,2.70
2018-02-25T06:31:08.493Z,2.40
2018-02-25T06:32:08.726Z,2.40
2018-02-25T06:33:08.970Z,2.30
2018-02-25T06:34:09.206Z,2.40
2018-02-25T06:35:09.442Z,2.40
2018-02-25T06:36:09.680Z,2.50
2018-02-25T06:37:09.919Z,2.30
2018-02-25T06:38:10.155Z,2.50
2018-02-25T06:39:10.392Z,2.40
2018-02-25T06:40:10.627Z,2.40
2018-02-25T06:41:10.867Z,2.40
2018-02-25T06:42:11.104Z,2.30
2018-02-25T06:43:11.380Z,2.40
2018-02-25T06:44:11.560Z,2.40
2018-02-25T06:45:11.798Z,2.40
2018-02-25T06:46:12.036Z,2.50
2018-02-25T06:47:12.275Z,2.50
2018-02-25T06:48:12.505Z,2.30
2018-02-25T06:49:12.741Z,2.50
2018-02-25T06:50:12.979Z,2.40
2018-02-25T06:51:13.214Z,2.50
2018-02-25T06:52:13.449Z,2.20
2018-02-25T06:53:13.700Z,2.50
2018-02-25T06:54:13.911Z,2.50
2018-02-25T06:55:14.179Z,2.40
2018-02-25T06:56:14.413Z,2.50
2018-02-25T06:57:14.650Z,2.40
2018-02-25T06:58:14.887Z,2.40
2018-02-25T06:59:15.121Z,2.50
2018-02-25T07:00:15.362Z,2.30
2018-02-25T07:01:15.599Z,2.50
2018-02-25T07:02:15.838Z,2.50
2018-02-25T07:03:16.073Z,2.50
2018-02-25T07:04:16.307Z,2.80
2018-02-25T07:05:16.544Z,2.40
2018-02-25T07:06:16.781Z,2.30
2018-02-25T07:07:17.020Z,2.70
2018-02-25T07:08:17.250Z,2.50
2018-02-25T07:09:17.487Z,2.50
2018-02-25T07:10:17.729Z,2.50
2018-02-25T07:11:17.967Z,2.50
2018-02-25T07:12:18.200Z,2.50
2018-02-25T07:13:18.435Z,2.40
2018-02-25T07:14:18.672Z,2.50
2018-02-25T07:15:18.912Z,2.50
2018-02-25T07:16:19.143Z,2.40
2018-02-25T07:17:19.378Z,2.50
2018-02-25T07:18:19.640Z,2.30
2018-02-25T07:19:19.857Z,2.30
2018-02-25T07:20:20.094Z,2.40
2018-02-25T07:21:20.332Z,2.60
2018-02-25T07:22:20.570Z,2.50
2018-02-25T07:23:20.818Z,2.20
2018-02-25T07:24:21.042Z,2.30
2018-02-25T07:25:21.281Z,2.40
2018-02-25T07:26:21.518Z,2.60
2018-02-25T07:27:21.774Z,2.50
2018-02-25T07:28:21.989Z,2.70
2018-02-25T07:29:22.218Z,2.70
2018-02-25T07:30:22.455Z,2.60
2018-02-25T07:31:22.692Z,2.60
2018-02-25T07:32:22.928Z,2.80
2018-02-25T07:33:23.166Z,2.40
2018-02-25T07:34:23.405Z,2.50
2018-02-25T07:35:23.641Z,2.50
2018-02-25T07:36:23.877Z,2.70
2018-02-25T07:37:24.115Z,2.50
2018-02-25T07:38:24.352Z,2.50
2018-02-25T07:39:24.590Z,2.40
2018-02-25T07:40:24.824Z,2.60
2018-02-25T07:41:25.062Z,2.30
2018-02-25T07:42:25.326Z,2.50
2018-02-25T07:43:25.537Z,2.60
2018-02-25T07:44:25.771Z,2.40
2018-02-25T07:45:26.009Z,2.50
2018-02-25T07:46:26.244Z,2.20
2018-02-25T07:47:26.481Z,2.20
2018-02-25T07:48:26.720Z,2.50
2018-02-25T07:49:26.955Z,2.40
2018-02-25T07:50:27.192Z,2.30
2018-02-25T07:51:27.430Z,2.50
2018-02-25T07:52:27.674Z,2.50
2018-02-25T07:53:27.898Z,2.60
2018-02-25T07:54:28.137Z,2.40
2018-02-25T07:55:28.372Z,2.30
2018-02-25T07:56:28.610Z,2.50
2018-02-25T07:57:28.845Z,2.50
2018-02-25T07:58:29.079Z,2.40
2018-02-25T07:59:29.321Z,2.30
2018-02-25T08:00:29.558Z,2.60
2018-02-25T08:01:29.794Z,2.50
2018-02-25T08:02:30.031Z,2.40
2018-02-25T08:03:30.294Z,2.60
2018-02-25T08:04:30.499Z,2.60
2018-02-25T08:05:30.739Z,2.30
2018-02-25T08:06:30.976Z,2.40
2018-02-25T08:07:31.205Z,2.40
2018-02-25T08:08:31.442Z,2.40
2018-02-25T08:09:31.679Z,2.40
2018-02-25T08:10:31.916Z,2.40
2018-02-25T08:11:32.152Z,2.30
2018-02-25T08:12:32.391Z,2.30
2018-02-25T08:13:32.670Z,2.30
2018-02-25T08:14:32.864Z,2.50
2018-02-25T08:15:33.101Z,2.40
2018-02-25T08:16:33.349Z,2.30
2018-02-25T08:17:33.587Z,2.40
2018-02-25T08:18:33.824Z,2.30
2018-02-25T08:19:34.065Z,2.40
2018-02-25T08:20:34.302Z,2.60
2018-02-25T08:21:34.540Z,2.50
2018-02-25T08:22:34.776Z,2.20
2018-02-25T08:23:35.015Z,2.50
2018-02-25T08:24:35.252Z,2.20
2018-02-25T08:25:35.487Z,2.50
2018-02-25T08:26:35.725Z,2.60
2018-02-25T08:27:35.964Z,2.60
2018-02-25T08:28:36.200Z,2.40
2018-02-25T08:29:36.437Z,2.40
2018-02-25T08:30:36.675Z,2.20
2018-02-25T08:31:36.916Z,2.40
2018-02-25T08:32:37.150Z,2.40
2018-02-25T08:33:37.387Z,2.30
2018-02-25T08:34:37.622Z,2.20
2018-02-25T08:35:37.862Z,2.30
2018-02-25T08:36:38.109Z,2.50
2018-02-25T08:37:38.337Z,2.40
2018-02-25T08:38:38.573Z,2.20
2018-02-25T08:39:38.812Z,2.20
2018-02-25T08:40:39.048Z,2.50
2018-02-25T08:41:39.282Z,2.30
2018-02-25T08:42:39.521Z,2.50
2018-02-25T08:43:39.763Z,2.50
2018-02-25T08:44:40.007Z,2.40
2018-02-25T08:45:40.233Z,2.40
2018-02-25T08:46:40.471Z,2.50
2018-02-25T08:47:40.709Z,2.10
2018-02-25T08:48:40.945Z,2.50
2018-02-25T08:49:41.183Z,2.50
2018-02-25T08:50:41.422Z,2.30
2018-02-25T08:51:41.662Z,2.40
2018-02-25T08:52:41.905Z,2.30
2018-02-25T08:53:42.133Z,2.40
2018-02-25T08:54:42.371Z,2.30
2018-02-25T08:55:49.738Z,2.40
2018-02-25T08:56:49.990Z,2.50
2018-02-25T08:57:50.248Z,2.30
2018-02-25T08:58:50.495Z,2.40
2018-02-25T08:59:50.749Z,2.30
2018-02-25T09:00:51.003Z,2.40
2018-02-25T09:01:51.744Z,2.40
2018-02-25T09:02:51.539Z,2.40
2018-02-25T09:03:44.662Z,2.30
2018-02-25T09:04:44.898Z,2.40
2018-02-25T09:05:45.138Z,2.20
2018-02-25T09:06:45.392Z,2.40
2018-02-25T09:07:45.609Z,2.40
2018-02-25T09:08:45.838Z,2.30
2018-02-25T09:09:46.080Z,2.30
2018-02-25T09:10:46.316Z,2.20
2018-02-25T09:11:46.564Z,2.40
2018-02-25T09:12:46.800Z,2.40
2018-02-25T09:13:47.036Z,2.10
2018-02-25T09:14:47.276Z,2.00
2018-02-25T09:15:47.507Z,2.50
2018-02-25T09:16:47.744Z,2.60
2018-02-25T09:17:47.979Z,2.20
2018-02-25T09:18:48.218Z,2.20
2018-02-25T09:19:48.452Z,2.30
2018-02-25T09:20:48.688Z,2.20
2018-02-25T09:21:48.929Z,2.50
2018-02-25T09:22:49.172Z,2.10
2018-02-25T09:23:49.401Z,2.30
2018-02-25T09:24:49.638Z,2.20
2018-02-25T09:25:49.878Z,2.10
2018-02-25T09:26:50.113Z,2.30
2018-02-25T09:27:50.352Z,2.20
2018-02-25T09:28:50.632Z,2.20
2018-02-25T09:29:50.826Z,2.10
2018-02-25T09:30:51.078Z,2.10
2018-02-25T09:31:51.300Z,2.50
2018-02-25T09:32:51.537Z,2.30
2018-02-25T09:33:51.776Z,2.40
2018-02-25T09:34:52.013Z,2.20
2018-02-25T09:35:52.254Z,2.30
2018-02-25T09:36:52.487Z,2.30
2018-02-25T09:37:52.727Z,2.10
2018-02-25T09:38:52.971Z,2.20
2018-02-25T09:39:53.199Z,2.20
2018-02-25T09:40:53.442Z,2.20
2018-02-25T09:41:53.673Z,2.30
2018-02-25T09:42:53.910Z,2.10
2018-02-25T09:43:54.148Z,2.30
2018-02-25T09:44:54.384Z,2.50
2018-02-25T09:45:54.623Z,2.30
2018-02-25T09:46:54.859Z,2.20
2018-02-25T09:47:55.089Z,2.20
2018-02-25T09:48:55.325Z,2.40
2018-02-25T09:49:55.569Z,2.00
2018-02-25T09:50:55.807Z,2.00
2018-02-25T09:51:56.044Z,2.50
2018-02-25T09:52:56.279Z,2.20
2018-02-25T09:53:56.519Z,2.00
2018-02-25T09:54:56.757Z,2.40
2018-02-25T09:55:56.997Z,2.20
2018-02-25T09:56:57.230Z,2.20
2018-02-25T09:57:57.469Z,2.00
2018-02-25T09:58:57.706Z,2.20
2018-02-25T09:59:57.942Z,2.20
2018-02-25T10:00:58.180Z,2.30
2018-02-25T10:01:58.420Z,2.20
2018-02-25T10:02:58.668Z,2.20
2018-02-25T10:03:58.890Z,2.10
2018-02-25T10:04:59.128Z,2.20
2018-02-25T10:05:59.367Z,2.10
2018-02-25T10:06:59.604Z,2.10
2018-02-25T10:07:59.884Z,2.30
2018-02-25T10:09:00.076Z,2.20
2018-02-25T10:10:00.315Z,2.10
2018-02-25T10:11:00.553Z,2.20
2018-02-25T10:12:00.790Z,2.10
2018-02-25T10:13:01.048Z,2.30
2018-02-25T10:14:01.256Z,2.30
2018-02-25T10:15:01.491Z,2.40
2018-02-25T10:16:01.727Z,2.20
2018-02-25T10:17:01.963Z,2.10
2018-02-25T10:18:02.212Z,2.20
2018-02-25T10:19:02.436Z,2.40
2018-02-25T10:20:02.676Z,2.20
2018-02-25T10:21:02.909Z,2.10
2018-02-25T10:22:03.143Z,2.30
2018-02-25T10:23:03.380Z,2.20
2018-02-25T10:24:03.620Z,2.10
2018-02-25T10:25:03.852Z,2.00
2018-02-25T10:26:04.090Z,2.20
2018-02-25T10:27:04.329Z,2.10
2018-02-25T10:28:04.571Z,2.00
2018-02-25T10:29:04.812Z,2.30
2018-02-25T10:30:05.049Z,2.10
2018-02-25T10:31:05.286Z,2.10
2018-02-25T10:32:05.520Z,2.30
2018-02-25T10:33:05.760Z,2.20
2018-02-25T10:34:05.997Z,2.10
2018-02-25T10:35:06.234Z,2.00
2018-02-25T10:36:06.467Z,2.00
2018-02-25T10:37:06.707Z,2.20
2018-02-25T10:38:06.946Z,2.30
2018-02-25T10:39:07.191Z,2.20
2018-02-25T10:40:07.427Z,2.20
2018-02-25T10:41:07.664Z,2.30
2018-02-25T10:42:07.905Z,2.10
2018-02-25T10:43:08.141Z,2.20
2018-02-25T10:44:08.379Z,2.20
2018-02-25T10:45:08.616Z,2.20
2018-02-25T10:46:08.856Z,2.20
2018-02-25T10:47:09.094Z,2.20
2018-02-25T10:48:09.330Z,2.00
2018-02-25T10:49:09.568Z,2.00
2018-02-25T10:50:09.805Z,2.00
2018-02-25T10:51:10.043Z,2.30
2018-02-25T10:52:10.280Z,2.10
2018-02-25T10:53:10.516Z,2.00
2018-02-25T10:54:10.754Z,2.00
2018-02-25T10:55:10.988Z,2.00
2018-02-25T10:56:11.225Z,2.20
2018-02-25T10:57:11.462Z,2.10
2018-02-25T10:58:11.703Z,2.00
2018-02-25T10:59:11.941Z,2.10
2018-02-25T11:00:12.178Z,2.10
2018-02-25T11:01:12.410Z,2.10
2018-02-25T11:02:12.651Z,2.20
2018-02-25T11:03:12.888Z,1.90
2018-02-25T11:04:13.124Z,2.10
2018-02-25T11:05:13.361Z,2.00
2018-02-25T11:06:13.601Z,2.00
2018-02-25T11:07:13.838Z,2.10
2018-02-25T11:08:14.076Z,2.00
2018-02-25T11:09:14.310Z,2.20
2018-02-25T11:10:14.621Z,2.10
2018-02-25T11:11:14.787Z,1.90
2018-02-25T11:12:15.026Z,2.10
2018-02-25T11:13:15.262Z,2.20
2018-02-25T11:14:15.500Z,2.10
2018-02-25T11:15:15.738Z,2.00
2018-02-25T11:16:15.968Z,2.20
2018-02-25T11:17:16.206Z,2.20
2018-02-25T11:18:16.459Z,1.90
2018-02-25T11:19:16.685Z,2.00
2018-02-25T11:20:16.920Z,2.20
2018-02-25T11:21:17.157Z,2.10
2018-02-25T11:22:17.398Z,1.90
2018-02-25T11:23:17.634Z,1.90
2018-02-25T11:24:17.870Z,1.90
2018-02-25T11:25:18.113Z,2.10
2018-02-25T11:26:18.346Z,1.90
2018-02-25T11:27:18.584Z,2.10
2018-02-25T11:28:18.822Z,2.00
2018-02-25T11:29:19.057Z,1.90
2018-02-25T11:30:19.295Z,2.00
2018-02-25T11:31:19.571Z,2.10
2018-02-25T11:32:19.770Z,2.10
2018-02-25T11:33:20.007Z,2.00
2018-02-25T11:34:20.244Z,2.20
2018-02-25T11:35:27.605Z,2.00
2018-02-25T11:36:27.855Z,2.10
2018-02-25T11:37:28.118Z,2.00
2018-02-25T11:38:28.862Z,2.10
2018-02-25T11:39:29.559Z,2.20
2018-02-25T11:40:28.889Z,2.10
2018-02-25T11:41:29.645Z,1.90
2018-02-25T11:42:29.434Z,1.90
2018-02-25T11:43:22.560Z,2.10
2018-02-25T11:44:22.797Z,1.90
2018-02-25T11:45:23.035Z,2.00
2018-02-25T11:46:23.268Z,2.00
2018-02-25T11:47:23.508Z,1.90
2018-02-25T11:48:23.745Z,2.10
2018-02-25T11:49:23.978Z,1.70
2018-02-25T11:50:24.214Z,2.00
2018-02-25T11:51:24.457Z,2.20
2018-02-25T11:52:24.694Z,2.00
2018-02-25T11:53:24.932Z,1.90
2018-02-25T11:54:25.167Z,1.90
2018-02-25T11:55:25.472Z,2.00
2018-02-25T11:56:25.642Z,2.00
2018-02-25T11:57:25.879Z,1.90
2018-02-25T11:58:26.116Z,2.00
2018-02-25T11:59:26.360Z,2.00
2018-02-25T12:00:26.593Z,1.90
2018-02-25T12:01:26.829Z,2.00
2018-02-25T12:02:27.196Z,1.90
2018-02-25T12:03:27.441Z,1.90
2018-02-25T12:04:27.667Z,2.00
2018-02-25T12:05:27.917Z,2.00
2018-02-25T12:06:28.154Z,1.90
2018-02-25T12:07:28.389Z,2.00
2018-02-25T12:08:28.626Z,1.90
2018-02-25T12:09:28.863Z,2.00
2018-02-25T12:10:29.098Z,2.20
2018-02-25T12:11:29.341Z,1.90
2018-02-25T12:12:29.567Z,2.00
2018-02-25T12:13:29.807Z,2.00
2018-02-25T12:14:30.044Z,2.00
2018-02-25T12:15:30.287Z,2.10
2018-02-25T12:16:30.530Z,2.10
2018-02-25T12:17:30.767Z,2.00
2018-02-25T12:18:31.003Z,1.80
2018-02-25T12:19:31.238Z,2.00
2018-02-25T12:20:31.496Z,1.90
2018-02-25T12:21:31.726Z,1.90
2018-02-25T12:22:31.963Z,1.90
2018-02-25T12:23:32.202Z,2.10
2018-02-25T12:24:32.436Z,1.70
2018-02-25T12:25:32.678Z,1.80
2018-02-25T12:26:32.914Z,1.90
2018-02-25T12:27:33.150Z,2.00
2018-02-25T12:28:33.390Z,2.00
2018-02-25T12:29:33.626Z,2.10
2018-02-25T12:30:33.865Z,2.00
2018-02-25T12:31:34.097Z,2.00
2018-02-25T12:32:34.336Z,1.80
2018-02-25T12:33:34.575Z,1.90
2018-02-25T12:34:34.812Z,2.10
2018-02-25T12:35:35.042Z,1.80
2018-02-25T12:36:35.285Z,2.00
2018-02-25T12:37:35.524Z,1.70
2018-02-25T12:38:35.761Z,1.90
2018-02-25T12:39:35.998Z,1.80
2018-02-25T12:40:36.239Z,2.00
2018-02-25T12:41:36.474Z,1.80
2018-02-25T12:42:36.710Z,1.90
2018-02-25T12:43:36.944Z,1.80
2018-02-25T12:44:37.181Z,1.80
2018-02-25T12:45:37.424Z,1.90
2018-02-25T12:46:37.655Z,2.00
2018-02-25T12:47:37.897Z,2.00
2018-02-25T12:48:38.132Z,1.80
2018-02-25T12:49:38.376Z,1.90
2018-02-25T12:50:38.607Z,1.80
2018-02-25T12:51:38.845Z,1.90
2018-02-25T12:52:39.081Z,1.90
2018-02-25T12:53:39.320Z,1.80
2018-02-25T12:54:39.556Z,2.10
2018-02-25T12:55:39.788Z,1.90
2018-02-25T12:56:40.025Z,1.80
2018-02-25T12:57:40.268Z,2.00
2018-02-25T12:58:40.504Z,2.00
2018-02-25T12:59:40.739Z,1.70
2018-02-25T13:00:40.976Z,2.10
2018-02-25T13:01:41.222Z,1.80
2018-02-25T13:02:41.457Z,2.10
2018-02-25T13:03:41.691Z,1.60
2018-02-25T13:04:41.928Z,1.80
2018-02-25T13:05:42.167Z,1.90
2018-02-25T13:06:42.412Z,1.90
2018-02-25T13:07:42.639Z,1.90
2018-02-25T13:08:42.876Z,1.80
2018-02-25T13:09:43.120Z,2.00
2018-02-25T13:10:43.364Z,2.00
2018-02-25T13:11:43.594Z,1.80
2018-02-25T13:12:43.829Z,1.80
2018-02-25T13:13:44.066Z,1.70
2018-02-25T13:14:44.345Z,1.70
2018-02-25T13:15:44.537Z,1.70
2018-02-25T13:16:44.775Z,2.00
2018-02-25T13:17:45.014Z,1.70
2018-02-25T13:18:45.250Z,1.70
2018-02-25T13:19:45.487Z,1.90
2018-02-25T13:20:45.725Z,1.80
2018-02-25T13:21:45.963Z,1.80
2018-02-25T13:22:46.199Z,1.70
2018-02-25T13:23:46.436Z,1.80
2018-02-25T13:24:46.673Z,1.70